Time;durP1;ratioP1;P1;durP2;ratioP2;P2;SDS_P1;SDS_P2;PMS_P1;PMS_P2;Temp;Humidity;BMP_temperature;BMP_pressure;BME280_temperature;BME280_humidity;BME280_pressure;Samples;Min_cycle;Max_cycle;Signal;HPM_P1;HPM_P2
2022/03/15 00:00:20;;;;;;;1999.90;999.90;;;6.30;99.90;;;;;;5055515;28;20474;-76
2022/03/15 00:02:48;;;;;;;1999.90;999.90;;;6.30;99.90;;;;;;5054595;28;20474;-75
2022/03/15 00:05:16;;;;;;;1999.90;999.90;;;6.40;99.90;;;;;;5054945;28;20447;-75
2022/03/15 00:07:43;;;;;;;1999.90;999.90;;;6.40;99.90;;;;;;5055019;28;20446;-74
2022/03/15 00:10:11;;;;;;;1999.90;999.90;;;6.40;99.90;;;;;;5055069;28;20504;-72
2022/03/15 00:12:37;;;;;;;1999.90;999.90;;;6.30;99.90;;;;;;5054585;28;20466;-75
2022/03/15 00:15:08;;;;;;;1999.90;999.90;;;6.30;99.90;;;;;;5054507;28;20450;-73
2022/03/15 00:17:35;;;;;;;1999.90;999.90;;;6.30;99.90;;;;;;5054337;28;20457;-70
2022/03/15 00:20:02;;;;;;;1999.90;999.90;;;6.30;99.90;;;;;;5054285;28;21001;-74
2022/03/15 00:22:35;;;;;;;1999.90;999.90;;;6.20;99.90;;;;;;5078476;23;20572;-71
2022/03/15 00:25:03;;;;;;;1999.90;999.90;;;6.20;99.90;;;;;;5059966;28;20453;-70
2022/03/15 00:27:30;;;;;;;1999.90;999.90;;;6.10;99.90;;;;;;5060919;28;20442;-71
2022/03/15 00:29:56;;;;;;;1999.90;999.90;;;6.00;99.90;;;;;;5060452;28;20447;-71
2022/03/15 00:32:24;;;;;;;1999.90;999.90;;;5.90;99.90;;;;;;5068953;28;20465;-71
2022/03/15 00:34:50;;;;;;;1999.90;999.90;;;5.90;99.90;;;;;;5079666;28;20451;-71
2022/03/15 00:37:17;;;;;;;1999.90;999.90;;;5.80;99.90;;;;;;5080533;28;21604;-71
2022/03/15 00:39:45;;;;;;;1999.90;999.90;;;5.80;99.90;;;;;;5078349;28;20438;-71
2022/03/15 00:42:12;;;;;;;1999.90;999.90;;;5.70;99.90;;;;;;5079450;28;20480;-69
2022/03/15 00:44:39;;;;;;;1999.90;999.90;;;5.70;99.90;;;;;;5079730;28;20498;-71
2022/03/15 00:47:06;;;;;;;1999.90;999.90;;;5.60;99.90;;;;;;5080648;28;20969;-71
2022/03/15 00:49:33;;;;;;;1999.90;999.90;;;5.60;99.90;;;;;;5080614;28;20511;-71
2022/03/15 00:52:00;;;;;;;1999.90;999.90;;;5.60;99.90;;;;;;5070164;28;20920;-70
2022/03/15 00:54:27;;;;;;;1999.90;999.90;;;5.60;99.90;;;;;;5071147;28;20481;-71
2022/03/15 00:56:56;;;;;;;1999.90;999.90;;;5.70;99.90;;;;;;5080985;28;20449;-71
2022/03/15 00:59:22;;;;;;;1999.90;999.90;;;5.70;99.90;;;;;;5071345;28;21008;-71
2022/03/15 01:01:49;;;;;;;1999.90;999.90;;;5.70;99.90;;;;;;5077080;28;20500;-71
2022/03/15 01:04:16;;;;;;;1999.90;999.90;;;5.70;99.90;;;;;;5080153;28;20453;-71
2022/03/15 01:06:43;;;;;;;1999.90;999.90;;;5.70;99.90;;;;;;5080591;28;20446;-71
2022/03/15 01:09:10;;;;;;;1999.90;999.90;;;5.60;99.90;;;;;;5079579;28;20521;-71
2022/03/15 01:11:37;;;;;;;1999.90;999.90;;;5.70;99.90;;;;;;5079577;28;20449;-71
2022/03/15 01:14:05;;;;;;;1999.90;999.90;;;5.70;99.90;;;;;;5077660;28;20441;-71
2022/03/15 01:16:32;;;;;;;1999.90;999.90;;;5.60;99.90;;;;;;5079128;28;20876;-71
2022/03/15 01:19:00;;;;;;;1999.90;999.90;;;5.60;99.90;;;;;;5078562;28;20540;-70
2022/03/15 01:21:28;;;;;;;1999.90;999.90;;;5.60;99.90;;;;;;5081109;28;20487;-71
2022/03/15 01:23:54;;;;;;;1999.90;999.90;;;5.50;99.90;;;;;;5079111;28;20449;-72
2022/03/15 01:26:21;;;;;;;1999.90;999.90;;;5.40;99.90;;;;;;5080260;28;20459;-71
2022/03/15 01:28:48;;;;;;;1999.90;999.90;;;5.50;99.90;;;;;;5077358;28;21060;-71
2022/03/15 01:31:16;;;;;;;1999.90;999.90;;;5.50;99.90;;;;;;5080715;28;20502;-70
2022/03/15 01:33:42;;;;;;;1999.90;999.90;;;5.50;99.90;;;;;;5069532;28;20469;-70
2022/03/15 01:36:09;;;;;;;1999.90;999.90;;;5.50;99.90;;;;;;5073627;28;20453;-72
2022/03/15 01:38:36;;;;;;;1999.90;999.90;;;5.50;99.90;;;;;;5083316;28;20503;-71
2022/03/15 01:41:03;;;;;;;1999.90;999.90;;;5.50;99.90;;;;;;5084042;28;20846;-70
2022/03/15 01:43:29;;;;;;;1999.90;999.90;;;5.60;99.90;;;;;;5083381;28;20481;-71
2022/03/15 01:45:56;;;;;;;1999.90;999.90;;;5.60;99.90;;;;;;5083155;28;20436;-71
2022/03/15 01:48:24;;;;;;;1999.90;999.90;;;5.80;99.90;;;;;;5072302;28;20464;-71
2022/03/15 01:50:51;;;;;;;1999.90;999.90;;;5.90;99.90;;;;;;5080395;28;20449;-70
2022/03/15 01:53:18;;;;;;;1999.90;999.90;;;5.90;99.90;;;;;;5083860;28;20480;-71
2022/03/15 01:55:45;;;;;;;1999.90;999.90;;;5.90;99.90;;;;;;5082411;28;20537;-71
2022/03/15 01:58:11;;;;;;;1999.90;999.90;;;5.80;99.90;;;;;;5084431;28;20460;-70
2022/03/15 02:00:38;;;;;;;1999.90;999.90;;;5.80;99.90;;;;;;5082410;28;20477;-70
2022/03/15 02:03:06;;;;;;;1999.90;999.90;;;5.80;99.90;;;;;;5082647;28;20481;-71
2022/03/15 02:46:15;;;;;;;1999.90;999.90;;;4.90;99.90;;;;;;5080871;28;20389;-71
2022/03/15 02:48:43;;;;;;;1999.90;999.90;;;5.00;99.90;;;;;;5080218;28;20456;-70
2022/03/15 02:51:10;;;;;;;1999.90;999.90;;;5.10;99.90;;;;;;5080974;28;20841;-70
2022/03/15 02:53:37;;;;;;;1999.90;999.90;;;5.10;99.90;;;;;;5082339;28;20845;-71
2022/03/15 02:56:04;;;;;;;1999.90;999.90;;;5.10;99.90;;;;;;5080535;28;20440;-69
2022/03/15 02:58:32;;;;;;;1999.90;999.90;;;5.10;99.90;;;;;;5079118;28;20574;-71
2022/03/15 03:00:58;;;;;;;1999.90;999.90;;;5.20;99.90;;;;;;5079469;28;20474;-71
2022/03/15 03:03:27;;;;;;;1999.90;999.90;;;5.10;99.90;;;;;;5079291;28;21058;-69
2022/03/15 03:05:54;;;;;;;1999.90;999.90;;;5.10;99.90;;;;;;5079364;28;20499;-69
2022/03/15 03:08:27;;;;;;;1999.90;999.90;;;5.10;99.90;;;;;;5079803;28;20458;-69
2022/03/15 03:10:54;;;;;;;1999.90;999.90;;;5.10;99.90;;;;;;5078741;28;20870;-70
2022/03/15 03:13:26;;;;;;;1999.90;999.90;;;5.00;99.90;;;;;;5080204;28;20988;-71
2022/03/15 03:15:55;;;;;;;1999.90;999.90;;;5.00;99.90;;;;;;5078617;28;20449;-70
2022/03/15 03:18:22;;;;;;;1999.90;999.90;;;4.90;99.90;;;;;;5079099;28;20453;-69
2022/03/15 03:20:50;;;;;;;1999.90;999.90;;;4.80;99.90;;;;;;5079233;28;20529;-71
2022/03/15 03:23:17;;;;;;;1999.90;999.90;;;4.90;99.90;;;;;;5069149;28;20484;-70
2022/03/15 03:25:44;;;;;;;1999.90;999.90;;;4.80;99.90;;;;;;5075215;28;20448;-70
2022/03/15 03:28:13;;;;;;;1999.90;999.90;;;4.80;99.90;;;;;;5080483;28;20494;-69
2022/03/15 03:30:41;;;;;;;1999.90;999.90;;;4.90;99.90;;;;;;5077926;28;20823;-70
2022/03/15 03:33:08;;;;;;;1999.90;999.90;;;5.00;99.90;;;;;;5079708;28;20852;-70
2022/03/15 03:35:34;;;;;;;1999.90;999.90;;;5.00;99.90;;;;;;5078347;28;20452;-69
2022/03/15 03:38:05;;;;;;;1999.90;999.90;;;5.00;99.90;;;;;;5079215;28;20453;-71
2022/03/15 03:40:32;;;;;;;1999.90;999.90;;;5.00;99.90;;;;;;5078679;28;20529;-71
2022/03/15 03:42:58;;;;;;;1999.90;999.90;;;5.00;99.90;;;;;;5078958;28;20476;-68
2022/03/15 03:45:25;;;;;;;1999.90;999.90;;;4.90;99.90;;;;;;5079019;28;20450;-68
2022/03/15 03:47:52;;;;;;;1999.90;999.90;;;4.90;99.90;;;;;;5078984;28;20449;-71
2022/03/15 03:50:19;;;;;;;1999.90;999.90;;;4.90;99.90;;;;;;5078578;28;20449;-69
2022/03/15 03:52:46;;;;;;;1999.90;999.90;;;4.80;99.90;;;;;;5080156;28;20462;-70
2022/03/15 03:55:14;;;;;;;1999.90;999.90;;;4.90;99.90;;;;;;5079161;28;20457;-70
2022/03/15 03:57:41;;;;;;;1999.90;999.90;;;4.80;99.90;;;;;;5078308;28;20510;-71
2022/03/15 04:00:09;;;;;;;1999.90;999.90;;;4.80;99.90;;;;;;5078825;28;20862;-70
2022/03/15 04:02:36;;;;;;;1999.90;999.90;;;4.80;99.90;;;;;;5078534;28;20480;-69
2022/03/15 04:05:02;;;;;;;1999.90;999.90;;;4.70;99.90;;;;;;5077774;28;20457;-70
2022/03/15 04:07:29;;;;;;;1999.90;999.90;;;4.70;99.90;;;;;;5079417;28;20601;-69
2022/03/15 04:09:56;;;;;;;1999.90;999.90;;;4.70;99.90;;;;;;5078574;28;20869;-71
2022/03/15 04:12:24;;;;;;;1999.90;999.90;;;4.70;99.90;;;;;;5078803;28;20465;-71
2022/03/15 04:14:52;;;;;;;1999.90;999.90;;;4.70;99.90;;;;;;5078698;28;20453;-70
2022/03/15 04:17:18;;;;;;;1999.90;999.90;;;4.70;99.90;;;;;;5078925;28;20448;-70
2022/03/15 04:19:45;;;;;;;1999.90;999.90;;;4.70;99.90;;;;;;5073293;28;20526;-71
2022/03/15 04:22:12;;;;;;;1999.90;999.90;;;4.70;99.90;;;;;;5079021;28;20500;-71
2022/03/15 04:24:38;;;;;;;1999.90;999.90;;;4.50;99.90;;;;;;5079169;28;20445;-70
2022/03/15 04:27:05;;;;;;;1999.90;999.90;;;4.30;99.90;;;;;;5079553;28;20444;-70
2022/03/15 04:29:33;;;;;;;1999.90;999.90;;;4.10;99.90;;;;;;5078518;28;20507;-71
2022/03/15 04:32:00;;;;;;;1999.90;999.90;;;4.00;99.90;;;;;;5079723;28;20464;-72
2022/03/15 04:34:27;;;;;;;1999.90;999.90;;;4.00;99.90;;;;;;5092404;28;20444;-73
2022/03/15 04:36:53;;;;;;;1999.90;999.90;;;4.10;99.90;;;;;;5075248;28;20544;-71
2022/03/15 04:39:20;;;;;;;1999.90;999.90;;;4.10;99.90;;;;;;5072601;28;20445;-71
2022/03/15 04:41:47;;;;;;;1999.90;999.90;;;4.20;99.90;;;;;;5088135;28;20533;-70
2022/03/15 04:44:14;;;;;;;1999.90;999.90;;;4.20;99.90;;;;;;5078148;28;20448;-70
2022/03/15 04:46:42;;;;;;;1999.90;999.90;;;4.20;99.90;;;;;;5077665;28;20457;-71
2022/03/15 04:49:08;;;;;;;1999.90;999.90;;;4.20;99.90;;;;;;5082065;28;20497;-70
2022/03/15 04:51:35;;;;;;;1999.90;999.90;;;4.20;99.90;;;;;;5090767;28;20475;-70
2022/03/15 04:54:02;;;;;;;1999.90;999.90;;;4.20;99.90;;;;;;5091682;28;20448;-70
2022/03/15 04:56:29;;;;;;;1999.90;999.90;;;4.30;99.90;;;;;;5079162;28;20452;-70
2022/03/15 04:58:56;;;;;;;1999.90;999.90;;;4.40;99.90;;;;;;5072005;28;20456;-70
2022/03/15 05:01:22;;;;;;;1999.90;999.90;;;4.40;99.90;;;;;;5077998;28;20476;-69
2022/03/15 05:03:50;;;;;;;1999.90;999.90;;;4.40;99.90;;;;;;5078048;28;20886;-70
2022/03/15 05:06:17;;;;;;;1999.90;999.90;;;4.40;99.90;;;;;;5077850;28;20822;-70
2022/03/15 05:08:44;;;;;;;1999.90;999.90;;;4.30;99.90;;;;;;5079566;28;20452;-72
2022/03/15 05:11:11;;;;;;;1999.90;999.90;;;4.30;99.90;;;;;;5081288;28;20453;-70
2022/03/15 05:13:40;;;;;;;1999.90;999.90;;;4.40;99.90;;;;;;5081653;28;20488;-69
2022/03/15 05:16:09;;;;;;;1999.90;999.90;;;4.40;99.90;;;;;;5081278;28;20452;-71
2022/03/15 05:18:36;;;;;;;1999.90;999.90;;;4.40;99.90;;;;;;5072216;28;20454;-71
2022/03/15 05:21:05;;;;;;;1999.90;999.90;;;4.30;99.90;;;;;;5071159;28;20488;-70
2022/03/15 05:23:31;;;;;;;1999.90;999.90;;;4.40;99.90;;;;;;5071548;28;20464;-70
2022/03/15 05:25:58;;;;;;;1999.90;999.90;;;4.40;99.90;;;;;;5081310;28;20441;-70
2022/03/15 05:28:25;;;;;;;1999.90;999.90;;;4.40;99.90;;;;;;5081572;28;20453;-70
2022/03/15 05:30:52;;;;;;;1999.90;999.90;;;4.40;99.90;;;;;;5081294;28;20446;-70
2022/03/15 05:33:18;;;;;;;1999.90;999.90;;;4.30;99.90;;;;;;5089122;28;20464;-70
2022/03/15 05:35:45;;;;;;;1999.90;999.90;;;4.20;99.90;;;;;;5094589;28;20490;-71
2022/03/15 05:38:13;;;;;;;1999.90;999.90;;;4.10;99.90;;;;;;5095391;28;20440;-72
2022/03/15 05:40:40;;;;;;;1999.90;999.90;;;4.10;99.90;;;;;;5094559;28;20452;-72
2022/03/15 05:43:07;;;;;;;1999.90;999.90;;;4.10;99.90;;;;;;5078077;28;20530;-73
2022/03/15 05:45:34;;;;;;;1999.90;999.90;;;4.10;99.90;;;;;;5081444;28;20437;-73
2022/03/15 05:48:01;;;;;;;1999.90;999.90;;;4.10;99.90;;;;;;5080165;28;20532;-71
2022/03/15 05:50:27;;;;;;;1999.90;999.90;;;4.10;99.90;;;;;;5082778;28;20498;-72
2022/03/15 05:52:54;;;;;;;1999.90;999.90;;;4.20;99.90;;;;;;5081048;28;20478;-70
2022/03/15 05:55:22;;;;;;;1999.90;999.90;;;4.30;99.90;;;;;;5082102;28;20498;-70
2022/03/15 05:57:49;;;;;;;1999.90;999.90;;;4.50;99.90;;;;;;5070953;28;20445;-70
2022/03/15 06:00:17;;;;;;;1999.90;999.90;;;4.40;99.90;;;;;;5071286;28;20502;-70
2022/03/15 06:02:44;;;;;;;1999.90;999.90;;;4.50;99.90;;;;;;5081269;28;20479;-71
2022/03/15 06:05:12;;;;;;;1999.90;999.90;;;4.30;99.90;;;;;;5080888;28;20457;-71
2022/03/15 06:07:44;;;;;;;1999.90;999.90;;;4.20;99.90;;;;;;5080721;28;21024;-70
2022/03/15 06:10:11;;;;;;;1999.90;999.90;;;4.20;99.90;;;;;;5070658;28;20848;-70
2022/03/15 06:12:39;;;;;;;1999.90;999.90;;;4.20;99.90;;;;;;5079383;28;20495;-70
2022/03/15 06:15:07;;;;;;;1999.90;999.90;;;4.30;99.90;;;;;;5080178;28;20996;-71
2022/03/15 06:17:42;;;;;;;1999.90;999.90;;;4.40;99.90;;;;;;5080243;28;21220;-71
2022/03/15 06:20:12;;;;;;;1999.90;999.90;;;4.50;99.90;;;;;;5080485;28;20506;-70
2022/03/15 06:22:40;;;;;;;1999.90;999.90;;;4.50;99.90;;;;;;5080169;28;20495;-70
2022/03/15 06:25:09;;;;;;;1999.90;999.90;;;4.50;99.90;;;;;;5080811;28;20452;-71
2022/03/15 06:27:35;;;;;;;1999.90;999.90;;;4.50;99.90;;;;;;5080910;28;20454;-73
2022/03/15 06:30:04;;;;;;;1999.90;999.90;;;4.60;99.90;;;;;;5081366;28;20510;-70
2022/03/15 06:32:31;;;;;;;1999.90;999.90;;;4.80;99.90;;;;;;5080439;28;20964;-71
2022/03/15 06:34:59;;;;;;;1999.90;999.90;;;4.80;99.90;;;;;;5080261;28;20441;-71
2022/03/15 06:37:26;;;;;;;1999.90;999.90;;;4.80;99.90;;;;;;5080820;28;20552;-69
2022/03/15 06:39:54;;;;;;;1999.90;999.90;;;4.90;99.90;;;;;;5080091;28;20491;-69
2022/03/15 06:42:21;;;;;;;1999.90;999.90;;;4.90;99.90;;;;;;5090815;28;20480;-71
2022/03/15 06:44:48;;;;;;;1999.90;999.90;;;4.80;99.90;;;;;;5084603;28;20453;-70
2022/03/15 06:47:16;;;;;;;1999.90;999.90;;;5.00;99.90;;;;;;5079805;28;20441;-71
2022/03/15 06:52:16;;;;;;;1999.90;999.90;;;5.20;99.90;;;;;;5074024;23;20501;-70
2022/03/15 06:54:43;;;;;;;1999.90;999.90;;;5.40;99.90;;;;;;5056876;28;20496;-71
2022/03/15 06:57:09;;;;;;;1999.90;999.90;;;5.60;99.90;;;;;;5057749;28;20875;-71
2022/03/15 06:59:36;;;;;;;1999.90;999.90;;;5.60;99.90;;;;;;5057173;28;20446;-69
2022/03/15 07:02:03;;;;;;;1999.90;999.90;;;5.80;99.90;;;;;;5053694;28;20482;-71
2022/03/15 07:04:31;;;;;;;1999.90;999.90;;;5.80;99.90;;;;;;5052620;28;20454;-70
2022/03/15 07:06:58;;;;;;;1999.90;999.90;;;6.00;99.90;;;;;;5052731;28;20938;-71
2022/03/15 07:09:24;;;;;;;1999.90;999.90;;;6.10;99.90;;;;;;5051859;28;20443;-71
2022/03/15 07:11:51;;;;;;;1999.90;999.90;;;6.30;99.90;;;;;;5051213;28;20544;-71
2022/03/15 07:14:18;;;;;;;1999.90;999.90;;;6.30;99.90;;;;;;5051850;28;20443;-71
2022/03/15 07:16:45;;;;;;;1999.90;999.90;;;6.40;99.90;;;;;;5051670;28;20470;-70
2022/03/15 07:19:11;;;;;;;1999.90;999.90;;;6.50;99.90;;;;;;5050840;28;20473;-71
2022/03/15 07:21:40;;;;;;;1999.90;999.90;;;6.40;99.90;;;;;;5050185;28;20516;-71
2022/03/15 07:24:07;;;;;;;1999.90;999.90;;;6.60;99.90;;;;;;5052170;28;20452;-71
2022/03/15 07:26:34;;;;;;;1999.90;999.90;;;6.70;99.90;;;;;;5053828;28;20488;-71
2022/03/15 07:29:01;;;;;;;1999.90;999.90;;;6.80;99.90;;;;;;5053248;28;20999;-71
2022/03/15 07:31:28;;;;;;;1999.90;999.90;;;6.90;99.90;;;;;;5053342;28;20863;-71
2022/03/15 07:33:54;;;;;;;1999.90;999.90;;;7.00;99.90;;;;;;5052596;28;20642;-70
2022/03/15 07:36:21;;;;;;;1999.90;999.90;;;7.10;99.90;;;;;;5049224;28;20457;-69
2022/03/15 07:38:50;;;;;;;1999.90;999.90;;;7.20;99.90;;;;;;5049489;28;20458;-70
2022/03/15 07:41:21;;;;;;;1999.90;999.90;;;7.20;99.90;;;;;;5051020;28;20466;-71
2022/03/15 07:43:48;;;;;;;1999.90;999.90;;;7.40;99.90;;;;;;5052203;28;20489;-71
2022/03/15 07:46:14;;;;;;;1999.90;999.90;;;7.40;99.90;;;;;;5052592;28;20892;-71
2022/03/15 07:48:41;;;;;;;1999.90;999.90;;;7.40;99.90;;;;;;5052933;28;20450;-71
2022/03/15 07:51:08;;;;;;;1999.90;999.90;;;7.30;99.90;;;;;;5051262;28;20482;-71
2022/03/15 07:53:34;;;;;;;1999.90;999.90;;;7.40;99.90;;;;;;5048749;28;21024;-71
2022/03/15 07:56:02;;;;;;;1999.90;999.90;;;7.40;99.90;;;;;;5048889;28;20500;-68
2022/03/15 07:58:30;;;;;;;1999.90;999.90;;;7.70;99.90;;;;;;5051267;28;20458;-69
2022/03/15 08:00:58;;;;;;;1999.90;999.90;;;7.80;99.90;;;;;;5052224;28;21016;-69
2022/03/15 08:03:25;;;;;;;1999.90;999.90;;;7.90;99.90;;;;;;5052455;28;20482;-69
2022/03/15 08:05:52;;;;;;;1999.90;999.90;;;8.10;99.90;;;;;;5052263;28;20942;-69
2022/03/15 08:08:19;;;;;;;1999.90;999.90;;;8.30;99.90;;;;;;5050911;28;20450;-68
2022/03/15 08:10:46;;;;;;;1999.90;999.90;;;8.40;99.90;;;;;;5049229;28;20466;-69
2022/03/15 08:13:14;;;;;;;1999.90;999.90;;;8.40;99.90;;;;;;5049822;28;20451;-69
2022/03/15 08:15:41;;;;;;;1999.90;999.90;;;8.60;99.90;;;;;;5046504;28;20452;-69
2022/03/15 08:18:07;;;;;;;1999.90;999.90;;;8.70;99.90;;;;;;5051613;28;20504;-69
2022/03/15 08:20:39;;;;;;;1999.90;999.90;;;8.80;99.90;;;;;;5047794;28;20466;-69
2022/03/15 08:23:06;;;;;;;1999.90;999.90;;;9.00;99.90;;;;;;5048332;28;20470;-69
2022/03/15 08:25:33;;;;;;;1999.90;999.90;;;9.00;99.90;;;;;;5048138;28;21029;-68
2022/03/15 08:28:00;;;;;;;1999.90;999.90;;;9.10;99.90;;;;;;5046767;28;20450;-69
2022/03/15 08:30:29;;;;;;;1999.90;999.90;;;9.00;99.90;;;;;;5047175;28;20466;-68
2022/03/15 08:32:56;;;;;;;1999.90;999.90;;;9.30;99.90;;;;;;5048835;28;20434;-69
2022/03/15 08:35:23;;;;;;;1999.90;999.90;;;9.40;99.90;;;;;;5048289;28;20458;-69
2022/03/15 08:37:51;;;;;;;1999.90;999.90;;;9.40;99.90;;;;;;5049209;28;20565;-69
2022/03/15 08:40:18;;;;;;;1999.90;999.90;;;9.30;99.90;;;;;;5049906;28;20474;-68
2022/03/15 08:42:45;;;;;;;1999.90;999.90;;;9.30;99.90;;;;;;5050795;28;20484;-69
2022/03/15 08:45:11;;;;;;;1999.90;999.90;;;9.50;99.90;;;;;;5052609;28;20520;-69
2022/03/15 08:47:40;;;;;;;1999.90;999.90;;;9.50;99.90;;;;;;5052374;28;20519;-69
2022/03/15 08:50:08;;;;;;;1999.90;999.90;;;9.70;99.90;;;;;;5048042;28;20958;-68
2022/03/15 08:52:35;;;;;;;1999.90;999.90;;;9.80;99.90;;;;;;5048090;28;20961;-69
2022/03/15 08:55:03;;;;;;;1999.90;999.90;;;9.80;99.90;;;;;;5047901;28;20943;-70
2022/03/15 08:57:30;;;;;;;1999.90;999.90;;;9.70;99.90;;;;;;5046555;28;20565;-69
2022/03/15 08:59:58;;;;;;;1999.90;999.90;;;9.60;99.90;;;;;;5048132;28;20775;-68
2022/03/15 09:02:24;;;;;;;1999.90;999.90;;;9.60;99.90;;;;;;5048310;28;20478;-69
2022/03/15 09:04:52;;;;;;;1999.90;999.90;;;9.70;99.90;;;;;;5047980;28;20454;-68
2022/03/15 09:07:19;;;;;;;1999.90;999.90;;;9.70;99.90;;;;;;5048413;28;20878;-69
2022/03/15 09:09:46;;;;;;;1999.90;999.90;;;9.80;99.90;;;;;;5048621;28;20504;-68
2022/03/15 09:12:12;;;;;;;1999.90;999.90;;;9.90;99.90;;;;;;5046929;28;20527;-69
2022/03/15 09:14:39;;;;;;;1999.90;999.90;;;10.00;99.90;;;;;;5045991;28;20507;-68
2022/03/15 09:17:06;;;;;;;1999.90;999.90;;;10.20;99.90;;;;;;5048477;28;20492;-66
2022/03/15 09:19:33;;;;;;;1999.90;999.90;;;10.30;99.90;;;;;;5049656;28;20451;-69
2022/03/15 09:22:02;;;;;;;1999.90;999.90;;;10.40;99.90;;;;;;5052702;28;20470;-68
2022/03/15 09:24:30;;;;;;;1999.90;999.90;;;10.60;99.90;;;;;;5053471;28;20481;-70
2022/03/15 09:26:56;;;;;;;1999.90;999.90;;;10.70;99.90;;;;;;5053311;28;20861;-69
2022/03/15 09:29:23;;;;;;;1999.90;999.90;;;10.70;99.90;;;;;;5052590;28;20476;-69
2022/03/15 09:31:50;;;;;;;1999.90;999.90;;;10.70;99.90;;;;;;5047107;28;21464;-69
2022/03/15 09:34:18;;;;;;;1999.90;999.90;;;10.80;99.90;;;;;;5047787;28;20444;-70
2022/03/15 09:36:45;;;;;;;1999.90;999.90;;;10.70;99.90;;;;;;5050180;28;20458;-68
2022/03/15 09:39:13;;;;;;;1999.90;999.90;;;10.80;99.90;;;;;;5049614;28;20481;-70
2022/03/15 09:41:41;;;;;;;1999.90;999.90;;;11.00;99.90;;;;;;5049645;28;20505;-71
2022/03/15 09:44:09;;;;;;;1999.90;999.90;;;11.10;99.90;;;;;;5047253;28;20474;-71
2022/03/15 09:46:41;;;;;;;1999.90;999.90;;;11.40;99.90;;;;;;5047979;28;20446;-72
2022/03/15 09:49:08;;;;;;;1999.90;999.90;;;11.60;99.90;;;;;;5047662;28;20496;-72
2022/03/15 09:51:36;;;;;;;1999.90;999.90;;;11.60;99.90;;;;;;5048044;28;20527;-71
2022/03/15 09:54:05;;;;;;;1999.90;999.90;;;11.70;99.90;;;;;;5047830;28;20450;-71
2022/03/15 09:56:34;;;;;;;1999.90;999.90;;;11.80;99.90;;;;;;5050396;28;20442;-71
2022/03/15 09:59:02;;;;;;;1999.90;999.90;;;11.90;99.90;;;;;;5051460;28;20458;-71
2022/03/15 10:01:28;;;;;;;1999.90;999.90;;;11.90;99.90;;;;;;5050496;28;21022;-71
2022/03/15 10:03:55;;;;;;;1999.90;999.90;;;12.00;99.90;;;;;;5054290;28;20482;-72
2022/03/15 10:06:23;;;;;;;1999.90;999.90;;;12.00;99.90;;;;;;5055001;28;20504;-72
2022/03/15 10:08:50;;;;;;;1999.90;999.90;;;12.00;99.90;;;;;;5035432;28;20453;-71
2022/03/15 10:11:18;;;;;;;1999.90;999.90;;;11.90;99.90;;;;;;5035170;28;20482;-72
2022/03/15 10:13:47;;;;;;;1999.90;999.90;;;12.00;99.90;;;;;;5055088;28;20484;-71
2022/03/15 10:16:14;;;;;;;1999.90;999.90;;;11.90;99.90;;;;;;5055005;28;20460;-71
2022/03/15 10:18:51;;;;;;;1999.90;999.90;;;11.90;99.90;;;;;;5051456;28;20520;-71
2022/03/15 10:21:20;;;;;;;1999.90;999.90;;;11.80;99.90;;;;;;5050042;28;21071;-71
2022/03/15 10:23:46;;;;;;;1999.90;999.90;;;11.80;99.90;;;;;;5051531;28;20569;-69
2022/03/15 10:26:23;;;;;;;1999.90;999.90;;;11.90;99.90;;;;;;5053197;28;20443;-69
2022/03/15 10:28:53;;;;;;;1999.90;999.90;;;12.00;99.90;;;;;;5052109;28;20872;-68
2022/03/15 10:31:22;;;;;;;1999.90;999.90;;;11.90;99.90;;;;;;5053418;28;20470;-71
2022/03/15 10:33:50;;;;;;;1999.90;999.90;;;12.10;99.90;;;;;;5050947;28;20798;-72
2022/03/15 10:36:17;;;;;;;1999.90;999.90;;;12.10;99.90;;;;;;5051081;28;21153;-71
2022/03/15 10:38:48;;;;;;;1999.90;999.90;;;12.10;99.90;;;;;;5050899;28;20523;-72
2022/03/15 10:41:15;;;;;;;1999.90;999.90;;;12.10;99.90;;;;;;5051230;28;20474;-71
2022/03/15 10:43:42;;;;;;;1999.90;999.90;;;12.20;99.90;;;;;;5048660;28;20482;-70
2022/03/15 10:46:12;;;;;;;1999.90;999.90;;;12.10;99.90;;;;;;5050308;28;20476;-71
2022/03/15 10:48:40;;;;;;;1999.90;999.90;;;11.90;99.90;;;;;;5050906;28;20454;-71
2022/03/15 10:51:11;;;;;;;1999.90;999.90;;;11.90;99.90;;;;;;5047341;28;20878;-71
2022/03/15 10:53:40;;;;;;;1999.90;999.90;;;11.90;99.90;;;;;;5050591;28;20430;-71
2022/03/15 10:56:12;;;;;;;1999.90;999.90;;;12.10;99.90;;;;;;5048881;28;20446;-70
2022/03/15 10:58:46;;;;;;;1999.90;999.90;;;12.10;99.90;;;;;;5050630;28;20458;-71
2022/03/15 11:01:16;;;;;;;1999.90;999.90;;;12.20;99.90;;;;;;5050133;28;20476;-72
2022/03/15 11:03:56;;;;;;;1999.90;999.90;;;12.30;99.90;;;;;;5050832;28;20901;-72
2022/03/15 11:06:31;;;;;;;1999.90;999.90;;;12.20;99.90;;;;;;5049794;28;20442;-71
2022/03/15 11:08:57;;;;;;;1999.90;999.90;;;12.30;99.90;;;;;;5050386;28;20488;-71
2022/03/15 11:11:25;;;;;;;1999.90;999.90;;;12.30;99.90;;;;;;5050192;28;20910;-72
2022/03/15 11:13:59;;;;;;;1999.90;999.90;;;12.30;99.90;;;;;;5050206;28;20537;-71
2022/03/15 11:16:30;;;;;;;1999.90;999.90;;;12.50;99.90;;;;;;5049744;28;20480;-72
2022/03/15 11:18:59;;;;;;;1999.90;999.90;;;12.50;99.90;;;;;;5050534;28;20442;-72
2022/03/15 11:21:27;;;;;;;1999.90;999.90;;;12.50;99.90;;;;;;5048837;28;21021;-70
2022/03/15 11:23:59;;;;;;;1999.90;999.90;;;12.50;99.90;;;;;;5049830;28;21709;-72
2022/03/15 11:26:31;;;;;;;1999.90;999.90;;;12.50;99.90;;;;;;5049404;28;20455;-70
2022/03/15 11:28:58;;;;;;;1999.90;999.90;;;12.50;99.90;;;;;;5049743;28;20438;-71
2022/03/15 11:31:27;;;;;;;1999.90;999.90;;;12.50;99.90;;;;;;5049708;28;20459;-72
2022/03/15 11:33:56;;;;;;;1999.90;999.90;;;12.40;99.90;;;;;;5048933;28;20450;-70
2022/03/15 11:36:25;;;;;;;1999.90;999.90;;;12.40;99.90;;;;;;5049495;28;20446;-71
2022/03/15 11:38:52;;;;;;;1999.90;999.90;;;12.30;99.90;;;;;;5049896;28;20451;-72
2022/03/15 11:41:21;;;;;;;1999.90;999.90;;;12.20;99.90;;;;;;5049107;28;20993;-71
2022/03/15 11:44:00;;;;;;;1999.90;999.90;;;12.00;99.90;;;;;;5049456;28;20492;-71
2022/03/15 11:46:34;;;;;;;1999.90;999.90;;;11.90;99.90;;;;;;5049045;28;20840;-72
2022/03/15 11:49:12;;;;;;;1999.90;999.90;;;11.90;99.90;;;;;;5049148;28;20504;-71
2022/03/15 11:51:53;;;;;;;1999.90;999.90;;;11.90;99.90;;;;;;5048904;28;20482;-71
2022/03/15 11:54:30;;;;;;;1999.90;999.90;;;12.00;99.90;;;;;;5048484;28;20443;-71
2022/03/15 11:57:00;;;;;;;1999.90;999.90;;;11.90;99.90;;;;;;5049851;28;20452;-69
2022/03/15 11:59:44;;;;;;;1999.90;999.90;;;12.00;99.90;;;;;;5048539;28;20528;-71
2022/03/15 12:02:12;;;;;;;1999.90;999.90;;;11.90;99.90;;;;;;5048901;28;20477;-71
2022/03/15 12:04:44;;;;;;;1999.90;999.90;;;11.90;99.90;;;;;;5048883;28;20881;-72
2022/03/15 12:07:12;;;;;;;1999.90;999.90;;;12.10;99.90;;;;;;5049141;28;20452;-71
2022/03/15 12:09:46;;;;;;;1999.90;999.90;;;12.00;99.90;;;;;;5049705;28;20557;-72
2022/03/15 12:12:14;;;;;;;1999.90;999.90;;;12.20;99.90;;;;;;5052430;28;20466;-72
2022/03/15 12:14:45;;;;;;;1999.90;999.90;;;12.20;99.90;;;;;;5052507;28;20457;-72
2022/03/15 12:17:14;;;;;;;1999.90;999.90;;;12.10;99.90;;;;;;5050467;28;20973;-72
2022/03/15 12:19:45;;;;;;;1999.90;999.90;;;12.10;99.90;;;;;;5051681;28;20454;-71
2022/03/15 12:22:23;;;;;;;1999.90;999.90;;;12.20;99.90;;;;;;5047847;28;20480;-71
2022/03/15 12:25:01;;;;;;;1999.90;999.90;;;12.30;99.90;;;;;;5047644;28;20565;-70
2022/03/15 12:27:28;;;;;;;1999.90;999.90;;;12.20;99.90;;;;;;5049961;28;20575;-72
2022/03/15 12:29:56;;;;;;;1999.90;999.90;;;12.20;99.90;;;;;;5052387;28;20442;-71
2022/03/15 12:32:25;;;;;;;1999.90;999.90;;;12.30;99.90;;;;;;5053982;28;20454;-71
2022/03/15 12:34:56;;;;;;;1999.90;999.90;;;12.30;99.90;;;;;;5052357;28;20443;-72
2022/03/15 12:37:29;;;;;;;1999.90;999.90;;;12.10;99.90;;;;;;5051320;28;20466;-71
2022/03/15 12:39:57;;;;;;;1999.90;999.90;;;12.20;99.90;;;;;;5047888;28;20454;-70
2022/03/15 12:42:25;;;;;;;1999.90;999.90;;;12.10;99.90;;;;;;5047587;28;20508;-71
2022/03/15 12:44:53;;;;;;;1999.90;999.90;;;12.10;99.90;;;;;;5049000;28;20576;-71
2022/03/15 12:47:21;;;;;;;1999.90;999.90;;;12.00;99.90;;;;;;5049248;28;20533;-72
2022/03/15 12:50:12;;;;;;;1999.90;999.90;;;12.10;99.90;;;;;;5049425;28;20905;-72
2022/03/15 12:52:40;;;;;;;1999.90;999.90;;;11.90;99.90;;;;;;5049501;28;20446;-71